Lahr, Germany

4:00 PM CEST on August 29, 2014 (GMT +0200)
Lahr | Change Station
CLOSE
Current Station
Airport
Location: Lahr,
Elevation: 512 ft
Nearby Weather Stations

Elev 512 ft 48.37 °N, 7.83 °E | Updated 10 minutes ago

Clear
Clear
72 °F
Feels Like 72 °F
N
6
Wind Variable Wind from South

Today
High -- | Low -- °F
--% Chance of Precip.
Yesterday
High -- | Low -- °F
Precip. -- in
6:41 AM 8:16 PM
Waxing Crescent, 14% visible
Pressure 30.04 in
Visibility -9999.0 miles
Clouds
Dew Point 61 °F
Humidity 69%
Rainfall 0.00 in
Snow Depth Not available.
UV Not available.
Pollen Not available.
Air Quality Not available.
Flu Activity Not available.
METAR EDTL 291350Z 19005KT 150V230 CAVOK 22/16 Q1017

More Conditions Fewer Conditions

Pressure 30.04 in
Visibility -9999.0 miles
Clouds
Dew Point 61 °F
Humidity 69%
Rainfall 0.00 in
Snow Depth Not available.
UV Not available.
Pollen Not available.
Air Quality Not available.
Flu Activity Not available.
METAR EDTL 291350Z 19005KT 150V230 CAVOK 22/16 Q1017

More Conditions Fewer Conditions

10-Day Weather Forecast

Almanac

Astronomy

Aug. 29, 2014 Rise Set
Actual Time 6:41 AM CEST 8:16 PM CEST
Civil Twilight 6:08 AM CEST 8:49 PM CEST
Nautical Twilight 5:28 AM CEST 9:29 PM CEST
Astronomical Twilight 4:45 AM CEST 10:12 PM CEST
Moon 10:35 AM CEST 9:43 PM CEST
Length of Visible Light 14h 40m
Length of Day
13h 35m
Tomorrow will be 3m 22s shorter.
Waxing Crescent, 14% of the Moon is Illuminated
Today
Waxing Crescent
Sep 2
First Quarter
Sep 8
Full
Sep 15
Last Quarter
Sep 24
New

Yesterday's Extremes

Country Highs Country Lows

Community

WunderPhotos

Upload Photos

1,748,240 photos uploaded!

Nearby

Snow Depth

Not available.

Earthquake Activity

City Distance Mag. Time & Date
No recent earthquake activity has been reported nearby.
Minimum magnitude displayed is 2.5.

Coastal Water Temperatures

Place Temperature
No Stations Reporting

Nearby Weather Stations